Time;durP1;ratioP1;P1;durP2;ratioP2;P2;SDS_P1;SDS_P2;PMS_P1;PMS_P2;Temp;Humidity;BMP_temperature;BMP_pressure;BME280_temperature;BME280_humidity;BME280_pressure;Samples;Min_cycle;Max_cycle;Signal;HPM_P1;HPM_P2
2021/04/19 00:01:16;;;;;;;24.27;13.23;;;7.10;99.90;;;;;;6184366;23;20104;-91
2021/04/19 00:03:45;;;;;;;22.35;12.80;;;7.10;99.90;;;;;;6210971;23;20411;-91
2021/04/19 00:06:14;;;;;;;24.15;12.93;;;7.20;99.90;;;;;;6138832;23;20016;-92
2021/04/19 00:08:40;;;;;;;22.52;12.23;;;7.30;99.90;;;;;;6212236;23;20078;-91
2021/04/19 00:11:05;;;;;;;23.35;13.32;;;7.40;99.90;;;;;;6211522;23;20335;-91
2021/04/19 00:13:31;;;;;;;26.77;13.20;;;7.40;99.90;;;;;;6187384;23;20382;-91
2021/04/19 00:15:57;;;;;;;26.20;13.55;;;7.40;99.90;;;;;;6186926;23;20017;-91
2021/04/19 00:18:23;;;;;;;26.73;13.55;;;7.50;99.90;;;;;;6211114;23;20020;-90
2021/04/19 00:20:49;;;;;;;22.73;13.45;;;7.50;99.90;;;;;;6161295;23;20162;-91
2021/04/19 00:23:15;;;;;;;31.20;14.25;;;7.50;99.90;;;;;;6210746;23;20514;-92
2021/04/19 00:25:41;;;;;;;26.40;13.60;;;7.50;99.90;;;;;;6213145;23;20017;-92
2021/04/19 00:28:12;;;;;;;27.95;14.10;;;7.60;99.90;;;;;;6161703;23;20017;-92
2021/04/19 00:30:38;;;;;;;29.83;15.10;;;7.40;99.90;;;;;;6136595;23;20074;-92
2021/04/19 00:33:04;;;;;;;24.05;12.45;;;7.40;99.90;;;;;;6184828;23;20397;-91
2021/04/19 00:35:30;;;;;;;25.75;13.80;;;7.40;99.90;;;;;;6186049;23;20062;-92
2021/04/19 00:37:56;;;;;;;25.40;13.65;;;7.50;99.90;;;;;;6136328;23;20111;-92
2021/04/19 00:40:23;;;;;;;24.02;13.55;;;7.50;99.90;;;;;;6210417;23;20024;-91
2021/04/19 00:42:52;;;;;;;22.65;13.95;;;7.50;99.90;;;;;;6185745;23;20023;-91
2021/04/19 00:45:19;;;;;;;24.42;13.95;;;7.50;99.90;;;;;;6211594;23;20219;-92
2021/04/19 00:47:45;;;;;;;30.08;14.73;;;7.50;99.90;;;;;;6161747;23;20027;-91
2021/04/19 00:50:15;;;;;;;24.98;13.82;;;7.60;99.90;;;;;;6185075;23;20024;-91
2021/04/19 00:52:41;;;;;;;26.25;13.52;;;7.70;99.90;;;;;;6212580;23;20016;-91
2021/04/19 00:55:11;;;;;;;26.80;15.57;;;7.70;99.90;;;;;;6160481;23;20012;-90
2021/04/19 00:57:37;;;;;;;21.90;14.73;;;7.70;99.90;;;;;;6188666;23;20447;-91
2021/04/19 01:00:11;;;;;;;21.75;13.43;;;7.70;99.90;;;;;;6184830;23;20324;-91
2021/04/19 01:02:41;;;;;;;25.42;14.95;;;7.70;99.90;;;;;;6160887;23;20116;-92
2021/04/19 01:05:14;;;;;;;25.52;14.50;;;7.80;99.90;;;;;;6185594;23;20072;-91
2021/04/19 01:07:40;;;;;;;28.38;15.73;;;7.80;99.90;;;;;;6196576;23;20051;-92
2021/04/19 01:10:07;;;;;;;24.85;14.57;;;7.80;99.90;;;;;;6185558;23;20013;-92
2021/04/19 01:12:33;;;;;;;24.48;14.23;;;7.80;99.90;;;;;;6186190;23;20020;-90
2021/04/19 01:14:59;;;;;;;32.15;16.83;;;7.80;99.90;;;;;;6161490;23;20023;-93
2021/04/19 01:17:26;;;;;;;24.20;14.13;;;7.80;99.90;;;;;;6211005;23;20044;-92
2021/04/19 01:19:52;;;;;;;22.77;13.43;;;7.90;99.90;;;;;;6212859;23;20028;-92
2021/04/19 01:22:18;;;;;;;23.63;13.70;;;7.90;99.90;;;;;;6211834;23;20020;-91
2021/04/19 01:24:44;;;;;;;23.85;14.15;;;7.90;99.90;;;;;;6161376;23;20358;-91
2021/04/19 01:27:10;;;;;;;19.63;12.65;;;7.90;99.90;;;;;;6184775;23;20016;-90
2021/04/19 01:29:36;;;;;;;28.58;13.50;;;7.90;99.90;;;;;;6160490;23;20020;-91
2021/04/19 01:32:02;;;;;;;19.80;12.43;;;7.90;99.90;;;;;;6184508;23;20450;-92
2021/04/19 01:34:29;;;;;;;28.45;14.07;;;7.90;99.90;;;;;;6136676;23;20027;-90
2021/04/19 01:36:55;;;;;;;23.27;13.60;;;7.90;99.90;;;;;;6185598;23;20017;-90
2021/04/19 01:39:21;;;;;;;26.80;13.50;;;7.90;99.90;;;;;;6160180;23;20586;-90
2021/04/19 01:41:47;;;;;;;24.40;13.30;;;8.00;99.90;;;;;;6185208;23;20468;-90
2021/04/19 01:44:13;;;;;;;25.40;14.57;;;8.00;99.90;;;;;;6211117;23;20017;-91
2021/04/19 01:46:41;;;;;;;22.25;13.30;;;8.00;99.90;;;;;;6210351;23;20100;-89
2021/04/19 01:49:18;;;;;;;21.80;13.50;;;8.00;99.90;;;;;;6185138;23;20047;-90
2021/04/19 01:51:45;;;;;;;22.02;13.52;;;7.90;99.90;;;;;;6210716;23;20025;-90
2021/04/19 01:54:12;;;;;;;24.05;13.60;;;8.00;99.90;;;;;;6211834;23;20021;-91
2021/04/19 01:56:38;;;;;;;22.45;14.60;;;8.00;99.90;;;;;;6185392;23;20036;-91
2021/04/19 01:59:06;;;;;;;21.30;13.45;;;8.00;99.90;;;;;;6198048;23;20025;-92
2021/04/19 02:01:33;;;;;;;27.83;13.80;;;8.00;99.90;;;;;;6212848;23;20031;-91
2021/04/19 02:04:15;;;;;;;32.22;14.27;;;7.90;99.90;;;;;;6186188;23;20017;-92
2021/04/19 02:06:59;;;;;;;23.15;12.73;;;7.90;99.90;;;;;;6186098;23;20016;-90
2021/04/19 02:09:47;;;;;;;25.77;13.75;;;7.90;99.90;;;;;;6220702;23;20087;-91
2021/04/19 02:12:41;;;;;;;27.38;12.77;;;7.80;99.90;;;;;;6185878;23;20503;-92
2021/04/19 02:15:13;;;;;;;29.77;14.88;;;7.80;99.90;;;;;;6212246;23;20431;-92
2021/04/19 02:17:51;;;;;;;31.67;15.27;;;7.70;99.90;;;;;;6210874;23;20017;-90
2021/04/19 02:20:46;;;;;;;28.90;15.98;;;7.70;99.90;;;;;;6220295;23;20067;-91
2021/04/19 02:23:26;;;;;;;24.30;14.57;;;7.60;99.90;;;;;;6210211;23;20031;-91
2021/04/19 02:25:57;;;;;;;33.50;16.33;;;7.50;99.90;;;;;;6221049;23;20013;-90
2021/04/19 02:28:31;;;;;;;32.83;17.58;;;7.50;99.90;;;;;;6213042;23;20086;-91
2021/04/19 02:31:02;;;;;;;28.48;16.38;;;7.40;99.90;;;;;;6222999;23;20088;-91
2021/04/19 02:33:33;;;;;;;28.08;16.92;;;7.40;99.90;;;;;;6212160;23;20024;-92
2021/04/19 02:35:59;;;;;;;27.45;17.27;;;7.30;99.90;;;;;;6187914;23;20017;-91
2021/04/19 02:38:29;;;;;;;30.98;17.15;;;7.30;99.90;;;;;;6187433;23;20132;-91
2021/04/19 02:41:00;;;;;;;30.52;16.33;;;7.20;99.90;;;;;;6214708;23;20008;-91
2021/04/19 02:43:27;;;;;;;28.92;17.90;;;7.10;99.90;;;;;;6222609;23;20456;-91
2021/04/19 02:45:53;;;;;;;33.38;16.35;;;7.00;99.90;;;;;;6212903;23;20342;-91
2021/04/19 02:48:24;;;;;;;30.15;17.35;;;7.00;99.90;;;;;;6213904;23;20104;-92
2021/04/19 02:50:51;;;;;;;;;;;6.90;99.90;;;;;;6188384;23;20442;-91
2021/04/19 02:53:20;;;;;;;27.25;14.63;;;6.80;99.90;;;;;;6210818;23;19926;-91
2021/04/19 02:55:47;;;;;;;27.45;15.70;;;6.80;99.90;;;;;;6212967;23;20020;-89
2021/04/19 02:58:16;;;;;;;30.60;16.02;;;6.60;99.90;;;;;;6210669;23;20020;-90
2021/04/19 03:00:48;;;;;;;34.33;17.83;;;6.60;99.90;;;;;;6187719;23;20016;-93
2021/04/19 03:03:26;;;;;;;30.08;16.65;;;6.60;99.90;;;;;;6221973;23;20367;-91
2021/04/19 03:05:53;;;;;;;30.02;17.63;;;6.60;99.90;;;;;;6212154;23;20024;-92
2021/04/19 03:08:21;;;;;;;36.78;17.50;;;6.60;99.90;;;;;;6211667;23;20017;-90
2021/04/19 03:10:58;;;;;;;35.55;17.83;;;6.70;99.90;;;;;;6187582;23;20338;-91
2021/04/19 03:13:27;;;;;;;35.88;17.38;;;6.70;99.90;;;;;;6211977;23;20512;-92
2021/04/19 03:15:56;;;;;;;28.30;15.77;;;6.70;99.90;;;;;;6213660;23;20442;-91
2021/04/19 03:18:23;;;;;;;29.23;16.52;;;6.70;99.90;;;;;;6186643;23;20108;-91
2021/04/19 03:21:29;;;;;;;32.50;16.08;;;6.60;99.90;;;;;;6212242;23;20372;-90
2021/04/19 03:23:59;;;;;;;35.10;17.23;;;6.60;99.90;;;;;;6211686;23;20021;-91
2021/04/19 03:26:29;;;;;;;28.23;18.05;;;6.60;99.90;;;;;;6210504;23;20108;-90
2021/04/19 03:28:56;;;;;;;41.80;18.90;;;6.50;99.90;;;;;;6212397;23;20450;-91
2021/04/19 03:31:24;;;;;;;44.67;19.05;;;6.50;99.90;;;;;;6187339;23;20020;-92
2021/04/19 03:33:52;;;;;;;32.97;18.58;;;6.50;99.90;;;;;;6211229;23;20074;-90
2021/04/19 03:36:20;;;;;;;48.22;22.30;;;6.50;99.90;;;;;;6209582;23;20805;-90
2021/04/19 03:38:48;;;;;;;41.58;20.35;;;6.50;99.90;;;;;;6210580;23;20013;-90
2021/04/19 03:41:16;;;;;;;36.67;20.17;;;6.50;99.90;;;;;;6210882;23;20020;-90
2021/04/19 03:43:53;;;;;;;40.38;21.33;;;6.50;99.90;;;;;;6211002;23;20016;-90
2021/04/19 03:46:22;;;;;;;44.53;20.95;;;6.40;99.90;;;;;;6219322;23;20097;-91
2021/04/19 03:48:57;;;;;;;41.65;20.15;;;6.40;99.90;;;;;;6210939;23;20074;-91
2021/04/19 03:51:25;;;;;;;43.00;20.42;;;6.30;99.90;;;;;;6219821;23;20024;-91
2021/04/19 03:53:53;;;;;;;40.05;20.08;;;6.40;99.90;;;;;;6210511;23;20464;-90
2021/04/19 03:56:21;;;;;;;36.35;19.45;;;6.30;99.90;;;;;;6185428;23;20019;-90
2021/04/19 03:58:49;;;;;;;41.55;21.05;;;6.30;99.90;;;;;;6210720;23;20017;-90
2021/04/19 04:01:17;;;;;;;30.67;18.17;;;6.20;99.90;;;;;;6185222;23;20352;-91
2021/04/19 04:03:45;;;;;;;41.70;22.10;;;6.20;99.90;;;;;;6212274;23;20016;-90
2021/04/19 04:06:12;;;;;;;42.25;22.05;;;6.20;99.90;;;;;;6210646;23;20016;-93
2021/04/19 04:08:40;;;;;;;35.35;20.85;;;6.10;99.90;;;;;;6185430;23;20024;-91
2021/04/19 04:11:07;;;;;;;30.17;17.27;;;6.20;99.90;;;;;;6186532;23;20099;-93
2021/04/19 04:13:35;;;;;;;38.38;19.83;;;6.20;99.90;;;;;;6211694;23;20084;-93
2021/04/19 04:16:01;;;;;;;36.15;19.98;;;6.50;99.90;;;;;;6211756;23;20385;-93
2021/04/19 04:18:27;;;;;;;38.78;19.17;;;6.20;99.90;;;;;;6186309;23;20442;-92
2021/04/19 04:20:56;;;;;;;33.40;18.52;;;6.30;99.90;;;;;;6212078;23;20021;-93
2021/04/19 04:23:25;;;;;;;43.53;20.48;;;6.30;99.90;;;;;;6186393;23;20021;-92
2021/04/19 04:25:51;;;;;;;38.47;19.77;;;6.30;99.90;;;;;;6186189;23;20036;-91
2021/04/19 04:28:24;;;;;;;36.67;19.95;;;6.30;99.90;;;;;;6210915;23;20434;-92
2021/04/19 04:30:49;;;;;;;36.10;18.50;;;6.40;99.90;;;;;;6186092;23;20021;-92
2021/04/19 04:33:15;;;;;;;37.58;19.77;;;6.40;99.90;;;;;;6160571;23;20031;-91
2021/04/19 04:35:41;;;;;;;30.38;18.77;;;6.40;99.90;;;;;;6210405;23;20104;-92
2021/04/19 04:38:07;;;;;;;30.05;18.55;;;6.60;99.90;;;;;;6185807;23;20017;-91
2021/04/19 04:40:34;;;;;;;31.83;17.20;;;6.50;99.90;;;;;;6184645;23;20469;-90
2021/04/19 04:43:15;;;;;;;34.35;18.52;;;6.50;99.90;;;;;;6210426;23;20079;-90
2021/04/19 04:45:42;;;;;;;31.70;18.50;;;6.50;99.90;;;;;;6184992;23;20024;-91
2021/04/19 04:48:30;;;;;;;34.67;17.20;;;6.60;99.90;;;;;;6212166;23;20020;-90
2021/04/19 04:51:09;;;;;;;33.95;17.75;;;6.50;99.90;;;;;;6185069;23;20012;-91
2021/04/19 04:53:39;;;;;;;29.02;16.73;;;6.60;99.90;;;;;;6208953;23;20009;-90
2021/04/19 04:56:06;;;;;;;27.48;15.70;;;6.60;99.90;;;;;;6185311;23;20371;-90
2021/04/19 04:58:35;;;;;;;26.00;14.77;;;6.60;99.90;;;;;;6184239;23;20025;-90
2021/04/19 05:01:03;;;;;;;30.65;17.20;;;6.60;99.90;;;;;;6210386;23;20076;-91
2021/04/19 05:03:32;;;;;;;28.67;16.35;;;6.70;99.90;;;;;;6160524;23;20384;-92
2021/04/19 05:05:58;;;;;;;33.85;16.13;;;6.70;99.90;;;;;;6185205;23;20012;-91
2021/04/19 05:08:26;;;;;;;29.60;15.90;;;6.80;99.90;;;;;;6184849;23;20017;-91
2021/04/19 05:10:55;;;;;;;29.52;16.13;;;6.80;99.90;;;;;;6185895;23;20026;-92
2021/04/19 05:13:21;;;;;;;31.17;16.65;;;6.90;99.90;;;;;;6211910;23;20036;-91
2021/04/19 05:15:49;;;;;;;27.58;16.63;;;6.90;99.90;;;;;;6211167;23;20435;-91
2021/04/19 05:18:19;;;;;;;29.60;16.73;;;6.90;99.90;;;;;;6210807;23;20039;-91
2021/04/19 05:20:46;;;;;;;32.35;16.90;;;7.00;99.90;;;;;;6211527;23;20012;-92
2021/04/19 05:23:12;;;;;;;30.50;16.10;;;6.90;99.90;;;;;;6184509;23;20123;-93
2021/04/19 05:25:39;;;;;;;25.08;15.63;;;6.90;99.90;;;;;;6209933;23;20043;-91
2021/04/19 05:28:06;;;;;;;29.05;16.77;;;7.00;99.90;;;;;;6160624;23;20039;-90
2021/04/19 05:30:32;;;;;;;28.88;16.20;;;6.90;99.90;;;;;;6184424;23;20350;-91
2021/04/19 05:32:59;;;;;;;28.15;17.65;;;6.90;99.90;;;;;;6212528;23;20342;-90
2021/04/19 05:35:27;;;;;;;30.33;17.08;;;6.90;99.90;;;;;;6184182;23;20438;-91
2021/04/19 05:37:54;;;;;;;38.92;18.02;;;6.90;99.90;;;;;;6209948;23;20100;-91
2021/04/19 05:40:20;;;;;;;30.70;17.63;;;6.90;99.90;;;;;;6184449;23;20028;-91
2021/04/19 05:42:47;;;;;;;33.47;19.05;;;6.90;99.90;;;;;;6185160;23;20039;-92
2021/04/19 05:45:16;;;;;;;34.92;18.33;;;6.90;99.90;;;;;;6210068;23;20016;-91
2021/04/19 05:47:47;;;;;;;37.83;18.85;;;7.00;99.90;;;;;;6159426;23;21003;-91
2021/04/19 05:50:16;;;;;;;34.30;18.90;;;7.00;99.90;;;;;;6185105;23;20031;-92
2021/04/19 05:52:44;;;;;;;35.92;17.40;;;7.00;99.90;;;;;;6185237;23;20025;-91
2021/04/19 05:55:12;;;;;;;34.28;18.40;;;7.10;99.90;;;;;;6185640;23;20020;-92
2021/04/19 05:58:11;;;;;;;30.13;17.83;;;7.10;99.90;;;;;;6184336;23;20021;-92
2021/04/19 06:00:43;;;;;;;27.83;17.02;;;7.10;99.90;;;;;;6160233;23;20024;-91
2021/04/19 06:03:33;;;;;;;33.63;16.20;;;7.20;99.90;;;;;;6214225;23;20046;-92
2021/04/19 06:06:37;;;;;;;29.55;16.92;;;7.30;99.90;;;;;;6188522;23;20024;-92
2021/04/19 06:09:15;;;;;;;34.95;18.13;;;7.30;99.90;;;;;;6187918;23;20020;-92
2021/04/19 06:11:48;;;;;;;34.72;19.35;;;7.40;99.90;;;;;;6187291;23;20600;-94
2021/04/19 06:14:22;;;;;;;31.30;18.40;;;7.40;99.90;;;;;;6214903;23;20036;-93
2021/04/19 06:16:49;;;;;;;33.20;18.65;;;7.40;99.90;;;;;;6162890;23;20013;-93
2021/04/19 06:19:20;;;;;;;34.42;18.55;;;7.40;99.90;;;;;;6188210;23;20045;-94
2021/04/19 06:21:48;;;;;;;;;;;7.50;99.90;;;;;;6162962;23;20699;-93
2021/04/19 06:24:15;;;;;;;27.77;16.05;;;7.50;99.90;;;;;;6162637;23;19919;-92
2021/04/19 06:26:41;;;;;;;29.88;16.67;;;7.60;99.90;;;;;;6136854;23;20023;-91
2021/04/19 06:29:11;;;;;;;30.88;15.63;;;7.60;99.90;;;;;;6187074;23;20335;-91
2021/04/19 06:31:47;;;;;;;33.35;17.83;;;7.70;99.90;;;;;;6162209;23;20020;-92
2021/04/19 06:34:13;;;;;;;31.75;18.48;;;7.80;99.90;;;;;;6197394;23;20020;-91
2021/04/19 06:36:40;;;;;;;32.30;17.65;;;7.80;99.90;;;;;;6216412;23;20346;-91
2021/04/19 06:39:09;;;;;;;29.80;16.60;;;7.90;99.90;;;;;;6216372;23;20020;-91
2021/04/19 06:41:35;;;;;;;27.85;15.93;;;7.90;99.90;;;;;;6185697;23;20017;-93
2021/04/19 06:44:05;;;;;;;35.75;14.00;;;8.00;99.90;;;;;;6211500;23;20044;-93
2021/04/19 06:46:38;;;;;;;20.77;12.20;;;8.10;99.90;;;;;;6160570;23;20086;-93
2021/04/19 06:49:06;;;;;;;28.55;13.63;;;8.20;99.90;;;;;;6196460;23;20016;-93
2021/04/19 06:51:33;;;;;;;32.72;15.75;;;8.20;99.90;;;;;;6185814;23;20100;-93
2021/04/19 06:54:02;;;;;;;21.63;13.40;;;8.20;99.90;;;;;;6187431;23;20026;-93
2021/04/19 06:56:37;;;;;;;26.17;13.60;;;8.30;99.90;;;;;;6162665;23;20521;-94
2021/04/19 06:59:08;;;;;;;32.58;14.55;;;8.40;99.90;;;;;;6200448;23;20027;-94
2021/04/19 07:01:34;;;;;;;24.80;13.05;;;8.50;99.90;;;;;;6187559;23;20020;-94
2021/04/19 07:04:03;;;;;;;29.02;14.25;;;8.50;99.90;;;;;;6163479;23;20319;-93
2021/04/19 07:06:34;;;;;;;28.83;14.30;;;8.50;99.90;;;;;;6187469;23;20458;-95
2021/04/19 07:09:25;;;;;;;22.77;12.18;;;8.50;99.90;;;;;;6188081;23;20267;-92
2021/04/19 07:12:08;;;;;;;22.30;13.32;;;8.50;99.90;;;;;;6188326;23;20431;-94
2021/04/19 07:14:56;;;;;;;27.63;14.07;;;8.60;99.90;;;;;;6191684;23;20528;-93
2021/04/19 07:17:26;;;;;;;30.17;14.38;;;8.70;99.90;;;;;;6187541;23;20024;-92
2021/04/19 07:19:52;;;;;;;27.13;15.30;;;8.70;99.90;;;;;;6187289;23;20091;-93
2021/04/19 07:22:18;;;;;;;32.80;13.63;;;8.70;99.90;;;;;;6162790;23;20354;-92
2021/04/19 07:24:44;;;;;;;25.83;14.38;;;8.80;99.90;;;;;;6186811;23;20082;-93
2021/04/19 07:27:12;;;;;;;24.65;13.55;;;8.80;99.90;;;;;;6187388;23;20021;-92
2021/04/19 07:29:40;;;;;;;23.02;13.82;;;8.90;99.90;;;;;;6162828;23;20067;-93
2021/04/19 07:32:06;;;;;;;27.55;13.88;;;8.90;99.90;;;;;;6187123;23;20021;-93
2021/04/19 07:34:32;;;;;;;26.05;14.20;;;9.00;99.90;;;;;;6186082;23;20158;-92
2021/04/19 07:37:03;;;;;;;20.48;12.60;;;9.00;99.90;;;;;;6186895;23;20442;-93
2021/04/19 07:43:19;;;;;;;20.60;12.05;;;9.10;99.90;;;;;;6206230;23;20075;-94
2021/04/19 07:46:14;;;;;;;20.40;12.27;;;9.20;99.90;;;;;;6162481;23;20139;-92
2021/04/19 07:48:52;;;;;;;23.67;12.45;;;9.30;99.90;;;;;;6186949;23;20354;-95
2021/04/19 07:51:32;;;;;;;24.40;13.05;;;9.30;99.90;;;;;;6162572;23;20040;-93
2021/04/19 07:54:24;;;;;;;22.95;13.25;;;9.40;99.90;;;;;;6188245;23;20013;-94
2021/04/19 07:56:58;;;;;;;21.50;13.13;;;9.50;99.90;;;;;;6187788;23;20091;-93
2021/04/19 07:59:29;;;;;;;24.52;13.27;;;9.60;99.90;;;;;;6186339;23;20027;-92
2021/04/19 08:02:03;;;;;;;22.08;12.38;;;9.60;99.90;;;;;;6186248;23;20028;-93
2021/04/19 08:04:44;;;;;;;23.33;13.75;;;9.70;99.90;;;;;;6187130;23;20043;-94
2021/04/19 08:08:13;;;;;;;24.73;12.63;;;9.80;99.90;;;;;;6187372;23;20104;-93
2021/04/19 08:10:45;;;;;;;23.60;13.18;;;10.00;99.90;;;;;;6185555;23;20031;-93
2021/04/19 08:13:12;;;;;;;29.40;13.25;;;10.30;99.90;;;;;;6186957;23;20086;-92
2021/04/19 08:15:41;;;;;;;23.75;12.10;;;10.50;99.90;;;;;;6185671;23;20016;-92
2021/04/19 08:18:39;;;;;;;19.00;12.45;;;10.70;99.90;;;;;;6187105;23;20024;-94
2021/04/19 08:21:18;;;;;;;22.42;12.65;;;10.80;99.90;;;;;;6186563;23;20020;-92
2021/04/19 08:23:46;;;;;;;23.65;11.82;;;10.90;99.90;;;;;;6185746;23;20021;-92
2021/04/19 08:26:12;;;;;;;20.52;13.02;;;11.10;99.90;;;;;;6185883;23;20016;-93
2021/04/19 08:28:48;;;;;;;22.70;11.85;;;11.10;99.90;;;;;;6185805;23;20338;-93
2021/04/19 08:31:19;;;;;;;23.85;13.43;;;11.10;99.90;;;;;;6186237;23;20040;-93
2021/04/19 08:33:49;;;;;;;48.90;15.85;;;11.20;99.90;;;;;;6185711;23;20044;-93
2021/04/19 08:36:15;;;;;;;;;;;11.30;99.90;;;;;;6187036;23;20020;-94
2021/04/19 08:38:43;;;;;;;25.77;14.63;;;11.40;99.90;;;;;;6184466;23;19927;-90
2021/04/19 08:41:13;;;;;;;27.98;15.25;;;11.50;99.90;;;;;;6185445;23;20025;-94
2021/04/19 08:43:40;;;;;;;27.45;15.20;;;11.40;99.90;;;;;;6186169;23;20016;-93
2021/04/19 08:46:13;;;;;;;26.08;15.45;;;11.50;99.90;;;;;;6187064;23;20071;-93
2021/04/19 08:48:39;;;;;;;35.53;16.38;;;11.50;99.90;;;;;;6186106;23;20050;-92
2021/04/19 08:51:08;;;;;;;28.95;16.65;;;11.50;99.90;;;;;;6212037;23;20096;-92
2021/04/19 08:53:37;;;;;;;28.13;16.38;;;11.40;99.90;;;;;;6161652;23;20504;-94
2021/04/19 08:56:03;;;;;;;25.63;15.00;;;11.30;99.90;;;;;;6186792;23;20459;-93
2021/04/19 08:58:30;;;;;;;26.63;14.40;;;11.40;99.90;;;;;;6211709;23;20017;-90
2021/04/19 09:00:59;;;;;;;28.25;16.30;;;11.40;99.90;;;;;;6161231;23;20024;-90
2021/04/19 09:03:25;;;;;;;21.98;14.90;;;11.30;99.90;;;;;;6211421;23;20039;-90
2021/04/19 09:05:52;;;;;;;24.33;16.02;;;11.20;99.90;;;;;;6185884;23;20017;-91
2021/04/19 09:08:35;;;;;;;33.53;15.40;;;10.90;99.90;;;;;;6162028;23;20016;-91
2021/04/19 09:11:06;;;;;;;27.40;15.43;;;10.90;99.90;;;;;;6186566;23;20012;-90
2021/04/19 09:13:39;;;;;;;23.23;14.60;;;10.90;99.90;;;;;;6221811;23;20020;-91
2021/04/19 09:16:21;;;;;;;28.73;15.73;;;11.00;99.90;;;;;;6186495;23;20039;-90
2021/04/19 09:18:55;;;;;;;28.15;17.00;;;11.20;99.90;;;;;;6186060;23;20043;-91
2021/04/19 09:21:40;;;;;;;27.15;16.42;;;11.10;99.90;;;;;;6186846;23;20016;-91
2021/04/19 09:24:17;;;;;;;27.95;17.55;;;11.20;99.90;;;;;;6211567;23;20443;-90
2021/04/19 09:26:54;;;;;;;28.38;17.73;;;11.30;99.90;;;;;;6185908;23;20032;-91
2021/04/19 09:29:26;;;;;;;28.95;18.52;;;11.40;99.90;;;;;;6186422;23;20521;-90
2021/04/19 09:31:55;;;;;;;28.40;18.25;;;11.30;99.90;;;;;;6185566;23;20031;-92
2021/04/19 09:34:37;;;;;;;46.33;20.80;;;11.40;99.90;;;;;;6186490;23;20031;-90
2021/04/19 09:37:06;;;;;;;30.77;19.10;;;11.20;99.90;;;;;;6186117;23;20040;-91
2021/04/19 09:39:50;;;;;;;33.28;20.48;;;11.50;99.90;;;;;;6159930;23;20095;-92
2021/04/19 09:42:18;;;;;;;32.88;19.98;;;11.40;99.90;;;;;;6186432;23;20016;-91
2021/04/19 09:44:51;;;;;;;34.03;20.17;;;11.20;99.90;;;;;;6185736;23;20070;-91
2021/04/19 09:47:45;;;;;;;47.65;21.02;;;11.20;99.90;;;;;;6186339;23;20021;-91
2021/04/19 09:50:12;;;;;;;38.92;20.73;;;11.10;99.90;;;;;;6186316;23;20043;-90
2021/04/19 09:52:39;;;;;;;43.90;22.98;;;11.10;99.90;;;;;;6161840;23;20019;-92
2021/04/19 09:55:05;;;;;;;42.03;23.27;;;11.10;99.90;;;;;;6210500;23;20021;-91
2021/04/19 09:57:34;;;;;;;46.67;24.45;;;11.20;99.90;;;;;;6186248;23;20370;-91
2021/04/19 10:00:04;;;;;;;41.90;23.25;;;11.30;99.90;;;;;;6210172;23;20024;-91
2021/04/19 10:02:30;;;;;;;43.05;23.88;;;11.40;99.90;;;;;;6211454;23;20330;-91
2021/04/19 10:04:59;;;;;;;37.65;22.60;;;11.30;99.90;;;;;;6210000;23;20017;-92
2021/04/19 10:07:25;;;;;;;41.38;22.08;;;11.40;99.90;;;;;;6185768;23;20021;-92
2021/04/19 10:09:54;;;;;;;41.35;22.17;;;11.80;99.90;;;;;;6185271;23;20099;-91
2021/04/19 10:12:21;;;;;;;34.15;20.83;;;11.90;99.90;;;;;;6211268;23;20032;-92
2021/04/19 10:14:47;;;;;;;32.15;19.60;;;12.00;99.90;;;;;;6210620;23;20021;-92
2021/04/19 10:17:18;;;;;;;34.50;20.92;;;12.20;99.90;;;;;;6211564;23;20032;-93
2021/04/19 10:19:45;;;;;;;29.42;19.42;;;12.50;99.90;;;;;;6185722;23;20083;-92
2021/04/19 10:22:11;;;;;;;31.15;19.23;;;12.60;99.90;;;;;;6185831;23;20017;-92
2021/04/19 10:24:58;;;;;;;29.50;17.52;;;12.60;99.90;;;;;;6161897;23;20071;-93
2021/04/19 10:27:25;;;;;;;46.55;19.52;;;13.00;99.90;;;;;;6186395;23;20461;-94
2021/04/19 10:29:58;;;;;;;30.73;19.67;;;13.10;99.90;;;;;;6185909;23;20012;-91
2021/04/19 10:32:30;;;;;;;34.15;19.60;;;13.20;99.90;;;;;;6186147;23;20096;-92
2021/04/19 10:34:56;;;;;;;37.95;21.00;;;13.30;99.90;;;;;;6210908;23;20020;-92
2021/04/19 10:37:22;;;;;;;31.48;20.08;;;13.20;99.90;;;;;;6161545;23;20023;-92
2021/04/19 10:39:51;;;;;;;36.60;20.98;;;13.20;99.90;;;;;;6160772;23;20316;-92
2021/04/19 10:42:27;;;;;;;43.05;23.35;;;13.20;99.90;;;;;;6211557;23;20316;-95
2021/04/19 10:44:59;;;;;;;43.65;22.63;;;12.90;99.90;;;;;;6185716;23;20023;-92
2021/04/19 10:47:28;;;;;;;42.97;22.25;;;13.00;99.90;;;;;;6211761;23;20017;-93
2021/04/19 10:49:54;;;;;;;39.13;23.27;;;12.90;99.90;;;;;;6212234;23;20021;-92
2021/04/19 10:52:20;;;;;;;38.17;24.23;;;13.10;99.90;;;;;;6188273;23;20446;-93
2021/04/19 10:54:46;;;;;;;49.40;26.48;;;13.10;99.90;;;;;;6212846;23;20026;-93
2021/04/19 10:57:25;;;;;;;48.38;27.35;;;13.20;99.90;;;;;;6187988;23;20095;-92
2021/04/19 10:59:57;;;;;;;57.45;27.02;;;13.00;99.90;;;;;;6187920;23;20025;-94
2021/04/19 11:02:24;;;;;;;49.00;27.33;;;13.20;99.90;;;;;;6188328;23;20024;-94
2021/04/19 11:04:51;;;;;;;49.25;27.35;;;13.40;99.90;;;;;;6188092;23;20017;-94
2021/04/19 11:07:26;;;;;;;55.78;26.52;;;13.50;99.90;;;;;;6213215;23;20092;-94
2021/04/19 11:10:14;;;;;;;46.53;26.50;;;13.80;99.90;;;;;;6187813;23;20021;-94
2021/04/19 11:12:52;;;;;;;52.67;27.75;;;13.90;99.90;;;;;;6188112;23;20465;-93
2021/04/19 11:15:20;;;;;;;57.80;29.48;;;14.00;99.90;;;;;;6166226;23;20308;-93
2021/04/19 11:17:49;;;;;;;51.78;28.50;;;13.90;99.90;;;;;;6188373;23;20059;-94
2021/04/19 11:20:28;;;;;;;47.92;24.98;;;14.10;99.90;;;;;;6159652;23;20362;-94
2021/04/19 11:22:54;;;;;;;36.35;23.02;;;14.40;99.90;;;;;;6185181;23;20025;-94
2021/04/19 11:25:26;;;;;;;35.88;20.95;;;14.60;99.90;;;;;;6213125;23;20009;-95
2021/04/19 11:28:13;;;;;;;35.13;21.83;;;14.70;99.90;;;;;;6187584;23;20026;-94
2021/04/19 11:30:39;;;;;;;35.72;21.85;;;14.70;99.90;;;;;;6212833;23;20071;-93
2021/04/19 11:33:19;;;;;;;35.58;21.73;;;14.90;99.90;;;;;;6186900;23;20351;-95
2021/04/19 11:35:48;;;;;;;32.22;19.48;;;15.10;99.90;;;;;;6188403;23;20017;-93
2021/04/19 11:38:22;;;;;;;27.92;19.20;;;15.10;99.90;;;;;;6187338;23;20056;-94
2021/04/19 11:41:10;;;;;;;29.83;17.73;;;14.90;99.90;;;;;;6188208;23;20024;-95
2021/04/19 11:43:50;;;;;;;34.35;20.50;;;15.10;99.90;;;;;;6188042;23;20019;-95
2021/04/19 11:46:18;;;;;;;32.83;19.42;;;15.00;99.90;;;;;;6187646;23;20017;-94
2021/04/19 11:48:46;;;;;;;30.00;19.75;;;15.00;99.90;;;;;;6188378;23;20017;-94
2021/04/19 11:51:15;;;;;;;32.45;20.80;;;15.00;99.90;;;;;;6187213;23;20017;-95
2021/04/19 11:53:42;;;;;;;29.83;19.98;;;15.00;99.90;;;;;;6212946;23;20022;-94
2021/04/19 11:56:10;;;;;;;31.67;20.92;;;14.90;99.90;;;;;;6212554;23;20024;-94
2021/04/19 11:58:44;;;;;;;33.08;21.17;;;14.80;99.90;;;;;;6183553;23;20020;-95
2021/04/19 12:01:12;;;;;;;35.47;20.70;;;14.80;99.90;;;;;;6162594;23;20020;-93
2021/04/19 12:03:39;;;;;;;32.03;20.70;;;14.80;99.90;;;;;;6186512;23;20035;-94
2021/04/19 12:06:06;;;;;;;37.63;22.60;;;14.90;99.90;;;;;;6160880;23;20025;-94
2021/04/19 12:08:45;;;;;;;30.85;21.25;;;15.00;99.90;;;;;;6160928;23;20103;-94
2021/04/19 12:11:21;;;;;;;34.72;22.17;;;15.00;99.90;;;;;;6160988;23;20111;-94
2021/04/19 12:13:46;;;;;;;34.22;22.10;;;15.30;99.90;;;;;;6161762;23;20016;-94
2021/04/19 12:16:12;;;;;;;35.17;23.13;;;15.60;99.90;;;;;;6212106;23;20520;-94
2021/04/19 12:18:39;;;;;;;40.90;21.10;;;15.80;99.90;;;;;;6187524;23;20036;-95
2021/04/19 12:21:06;;;;;;;29.88;21.13;;;16.10;99.90;;;;;;6186444;23;20020;-92
2021/04/19 12:23:34;;;;;;;35.70;20.40;;;16.30;99.90;;;;;;6206045;23;20023;-92
2021/04/19 12:26:00;;;;;;;36.42;21.80;;;16.70;99.90;;;;;;6182507;23;20017;-91
2021/04/19 12:28:33;;;;;;;27.90;20.98;;;16.90;99.90;;;;;;6209746;23;20024;-95
2021/04/19 12:31:07;;;;;;;36.20;21.42;;;17.10;99.90;;;;;;6140825;23;20450;-96
2021/04/19 12:33:34;;;;;;;32.05;22.10;;;17.40;99.90;;;;;;6188022;23;20021;-95
2021/04/19 12:36:29;;;;;;;32.05;22.25;;;17.50;99.90;;;;;;6186633;23;20095;-95
2021/04/19 12:39:08;;;;;;;30.80;20.88;;;17.80;99.90;;;;;;6187141;23;20521;-95
2021/04/19 12:41:40;;;;;;;30.00;20.15;;;17.80;99.90;;;;;;6163617;23;20066;-95
2021/04/19 12:44:09;;;;;;;28.45;20.45;;;18.20;99.90;;;;;;6186381;23;20028;-94
2021/04/19 12:46:42;;;;;;;29.10;20.73;;;18.10;99.90;;;;;;6187402;23;20091;-95
2021/04/19 12:49:17;;;;;;;34.40;21.73;;;18.10;99.90;;;;;;6212560;23;20096;-95
2021/04/19 12:51:52;;;;;;;23.83;17.75;;;18.20;99.90;;;;;;6187848;23;20086;-95
2021/04/19 12:54:21;;;;;;;28.30;19.90;;;18.30;99.90;;;;;;6211946;23;20021;-96
2021/04/19 12:56:54;;;;;;;30.48;19.85;;;18.30;99.90;;;;;;6186773;23;20071;-94